Poznań

Wyniki

Bieg 5

05.03.2022 Dystans: 5 km Rodzaj: Bieg główny
Pobierz wyniki:
Miejsce Nr Nazwisko Imię Miasto Klub Rocznik Kategoria Czas netto Czas brutto
1 1281 TALAR PATRYCJA Pobiedziska MANUFAKTURA MIESZKAŃ 1986 K30 00:18:26 00:18:28
2 1210 BERESNIEWICZ ALEKSANDRA Krosno Odrzańskie BIEGOŻERY 2002 K16 00:18:38 00:18:39
3 431 KAFARSKA URSZULA Poznań SKS OBORNIKI 1993 K20 00:19:00 00:19:03
4 1648 BUŻYCKA MAJA Mława KU AZS AUM POZNAŃ 2000 K20 00:19:06 00:19:08
5 1318 KACZMAREK AGATA Poznań FEHLAU RUN TEAM 1981 K40 00:19:20 00:19:23
6 579 FERCHMIN ALEKSANDRA Poznań KU AZS UAM TRIATHLON POZNAŃ (1698) 2004 K16 00:19:20 00:19:22
7 14 JARASZKIEWICZ HANIA Poznań 1986 K30 00:19:23 00:19:26
8 1200 PAWEŁCZYK JULIA Jarocin BIEGOŻERY 2002 K16 00:19:25 00:19:26
9 13 RADZIEJ ALICJA Poznań NIGHT RUNNERS 1991 K30 00:19:41 00:19:44
10 394 KLUPCZYŃSKA KAROLINA Poznań MANUFAKTURA MIESZKAŃ 1995 K20 00:19:50 00:19:54
11 1277 JANICKA PAULA Poznan KU AZS UAM TRIATHLON POZNAŃ 2004 K16 00:20:01 00:20:02
12 1249 WOJTKOWIAK WIKTORIA Kłecko AZS POZNAŃ 2003 K16 00:20:14 00:20:15
13 1101 OSZMAŁEK AGATA Poznań SNUFKINBIEGA.WORDPRESS.COM 1986 K30 00:20:16 00:20:23
14 84 WAWRZYNIAK-WACKO ZOFIA Poznań KOBIETYBIEGAJA.PL / ZOFFEE KAWIARNIA 1986 K30 00:20:18 00:20:23
15 1653 DIAS JULIA Gdynia CITY TRAIL TEAM 1999 K20 00:20:51 00:20:58
16 142 DOMAŃ JOANNA Kiekrz FEHLAU RUN TEAM 1976 K40 00:20:51 00:20:59
17 160 MALINOWSKA ANDZELINA Poznan OWOCBIEGA TEAM/SEKTOR DOBREJ ZABAWY 1989 K30 00:20:53 00:20:59
18 1656 CZAJA PAULINA Toruń 1994 K20 00:21:08 00:21:14
19 1308 SUSMARSKA EWA Poznań OWOCBIEGA TEAM 1996 K20 00:21:13 00:21:22
20 1286 PĘKALA KAMILA Poznań #BIEGAJZESLAWKIEM 1997 K20 00:21:25 00:21:32
21 1212 KARCZEWSKA KAROLINA Poznań OWOCBIEGA TEAM 1991 K30 00:21:26 00:21:37
22 265 PASIEKA KATARZYNA Poznań BIEGAJĄCE KREJZOLE 1984 K30 00:21:35 00:21:52
23 1232 LICZNIERSKA ALINA Plewiska OWOCBIEGA TEAM 1982 K30 00:21:52 00:22:03
24 1179 ADAMSKA ZOFIA Złotniki RUN EXPLORE TEAM 1989 K30 00:21:56 00:22:06
25 563 OŹMINKOWSKA ALEKSANDRA Poznań DIRTY SPARROWS 1990 K30 00:22:04 00:23:36
26 423 SZUBA MARTYNA Poznań SKLEP BIEGACZA RUNNING TEAM 1994 K20 00:22:13 00:22:21
27 322 KANECKA ALICJA Ślesin NOWAK RUN - STEFANOWICZ RUNNING ACADEMY 2002 K16 00:22:17 00:23:54
28 205 LASAK MARIA Poznań HERNIK TEAM 1983 K30 00:22:22 00:22:36
29 194 KOWALSKA ROMA Bytkowo OWOCBIEGA TEAM 1983 K30 00:22:32 00:22:43
30 226 BARANOWSKA ALEKSANDRA Swarzędz MISTRZOWSKI TRENING 1999 K20 00:22:34 00:24:07
31 1097 FILDEBRANDT BASIA POZNAŃ OWOCBIEGA TEAM 1982 K30 00:22:42 00:22:52
32 171 PACZKOWSKA KATARZYNA Kiekrz BIEGAJĄCE KREJZOLE 1983 K30 00:22:58 00:23:08
33 1247 MACIOSZEK NATALIA Poznań 1984 K30 00:23:01 00:24:36
34 1131 PETROCZKO PATRYCJA Kórnik OSIR CREW 1980 K40 00:23:13 00:28:02
35 33 GORĄCZNIAK ANNA Poznań KOBIETY BIEGAJĄ 1990 K30 00:23:16 00:24:55
36 1023 JANOWICZ HONORATA Opalenica OPALENICKI KLUB BIEGACZA 1995 K20 00:23:20 00:26:26
37 38 SIP MARTA Poznań OWOCBIEGA TEAM 1990 K30 00:23:24 00:25:13
38 1640 WRÓBLEWSKA MAŁGORZATA Komorniki LOCO SPORT 1985 K30 00:23:28 00:25:04
39 1553 MURAS AGNIESZKA Poznań NIGHT RUNNERS POZNAŃ 1983 K30 00:23:29 00:25:05
40 152 KWIATKOWSKA ZUZANNA Poznań HERNIK TEAM 1993 K20 00:23:34 00:23:47
41 290 HAMPEL ANIA Poznań 1981 K40 00:23:34 00:25:16
42 270 ŻOCHOWSKA KATARZYNA Poznań GRUPA OLX TEAM 1994 K20 00:23:40 00:25:22
43 248 BESTRZYŃSKA JOANNA Gądki 1971 K50 00:23:53 00:24:06
44 1430 MANICKA MARTYNA Poznań 1999 K20 00:24:03 00:25:36
45 1647 NAPIERAŁA KATARZYNA Suchy Las 1976 K40 00:24:09 00:24:34
46 525 WIZA ANNA Swarzędz 1982 K30 00:24:15 00:26:03
47 1098 MACKOWIAK RENATA Poznań 1987 K30 00:24:24 00:26:18
48 87 CIEŚLEWICZ-GALAS KATARZYNA Poznań HERNIK TEAM 1979 K40 00:24:25 00:24:38
49 461 KARLAK MALGORZATA Poznań 1974 K40 00:24:29 00:24:32
50 1411 FEHLAU PATRYCJA Chomęcice FEHLAU RUN TEAM 1988 K30 00:24:32 00:24:43
51 1003 ZIMNIEWICZ AGATA Poznań 1990 K30 00:24:36 00:26:29
52 1421 PRUCHNIEWSKA AGNIESZKA Rokietnica ROKIETNICA BIEGA 1978 K40 00:24:39 00:26:13
53 1067 STACHOWIAK DANUTA Rokietnica OWOCBIEGA TEAM/ROKIETNICA BIEGA 1974 K40 00:24:44 00:27:47
54 39 STRUCKA ALEKSANDRA Poznań DOMDATA RUN TEAM 1986 K30 00:24:45 00:26:24
55 191 DUDZIŃSKA ANNA Rokietnica HERNIK TEAM 1980 K40 00:24:46 00:25:01
56 164 LEONARSKA MAŁGORZATA Poznań BIEGAJĄCE KREJZOLE 1987 K30 00:24:52 00:26:30
57 384 GŁÓWCZYŃSKA KATARZYNA Mechlin RUNNER S POWER ŚREM 1992 K20 00:24:52 00:25:09
58 333 RUSINEK EWA Szamotuły 1984 K30 00:25:00 00:26:54
59 1133 CZEKALSKA MAGDALENA Poznań NARAMOWICE BIEGAJĄ 1982 K30 00:25:14 00:26:51
60 110 CHMIELEWSKA ŻANETA Dopiewiec 1985 K30 00:25:16 00:28:20
61 1016 SKRZYPCZAK HANNA Miłosław MIŁOSŁAW FORTUNA TEAM 1967 K50 00:25:32 00:28:45
62 247 SIKORA MILENA Poznań NIEDZIELNA 100 1984 K30 00:25:34 00:25:39
63 1132 CHRZĄŚCIK EWELINA Kraków MISTRZOWSKI TRENING 1989 K30 00:25:36 00:28:45
64 81 GLINKOWSKA ELŻBIETA Poznań 1970 K50 00:25:45 00:27:30
65 1261 KALISZAN DOMINIKA Poznań 1989 K30 00:25:54 00:29:16
66 429 GRABOWSKA DOMINIKA Bydgoszcz MOC I SIŁA 1993 K20 00:25:56 00:27:40
67 256 JANKOWSKA PAULINA Poznań 1990 K30 00:25:57 00:27:48
68 236 BURSIAK MARIANNA Poznań DZIKI Z POLANKI 2002 K16 00:26:02 00:27:51
69 216 JÓZEFCZYK JUSTYNA POZNAŃ PIĄTKOWO NA BIEGOWO 1980 K40 00:26:08 00:27:45
70 1058 SUCHORSKA MAGDALENA Plewiska 1986 K30 00:26:10 00:29:33
71 83 AUGUSTYNIAK BASIA Skórzewo 1975 K40 00:26:12 00:29:17
72 334 BUKOWSKA NATALIA Rokietnica AKWEDUKT 1988 K30 00:26:14 00:29:23
73 1007 DUTKOWIAK ALEKSANDRA POZNAŃ PIĄTKOWO NA BIEGOWO 1981 K40 00:26:25 00:28:02
74 48 PIĄTEK KAMILA Poznań 1989 K30 00:26:28 00:29:48
75 1662 JARMUDA JUSTYNA POZNAŃ 1982 K30 00:26:39 00:26:53
76 1111 PUCHALSKA ELŻBIETA Poznań 1977 K40 00:26:42 00:28:52
77 1042 ŁASOCHA KAMILA Poznań OWOCBIEGA TEAM 1982 K30 00:26:45 00:29:52
78 199 WOJCIECHOWSKA ANNA Poznań PIĄTKOWO NA BIEGOWO 1971 K50 00:26:46 00:28:22
79 1070 FELKEL EWA Poznań PIĄTKOWO NA BIEGOWO 1973 K40 00:26:46 00:28:23
80 573 SIEJEK NATALIA Rokietnica POWIAT POZNAŃSKI 1988 K30 00:26:52 00:30:01
81 539 PYCHYŃSKA JULITA Oborniki 1989 K30 00:26:55 00:28:30
82 397 MICHALSKA OKTAWIA Poznań CARLSBERG SHARED SERVICES 1980 K40 00:26:55 00:30:01
83 473 GRAJ MARIANNA Poznań STRZESZYN BIEGA 1982 K30 00:27:07 00:28:55
84 193 KOWALEWSKA JOANNA Poznań 1977 K40 00:27:09 00:30:19
85 482 PAWLAK IWONA Poznan 1984 K30 00:27:15 00:30:41
86 250 JASIŃSKA LIDIA Poznań STRZESZYN BIEGA 1970 K50 00:27:16 00:29:03
87 344 MĘŻYŃSKA KAROLINA Cerekwica 1980 K40 00:27:21 00:30:31
88 1029 POPIOŁEK RENATA Poznań PRO366 1985 K30 00:27:22 00:30:33
89 1569 BIEGAŃSKA ALEKSANDRA Poznań 1980 K40 00:27:23 00:32:17
90 1654 MARKIEWICZ JOANNA ZUZA POZNAŃ TJ! 1976 K40 00:27:24 00:30:35
91 1479 BIGOSIŃSKA HANNA Poznań OWOCBIEGA TEAM 1986 K30 00:27:35 00:30:43
92 1123 NOWACKA JUSTYNA Poznań OWOC BIEGA 1978 K40 00:27:36 00:30:43
93 1655 JURSZCZYN BARBARA POZNAŃ 1988 K30 00:27:41 00:27:56
94 1244 SZWEBS WERONIKA Poznań SYNEKDOCHA I METONIMIA 1990 K30 00:27:47 00:29:40
95 134 NOWACZEWSKA ANITA Poznań NIGHTRUNNERS 1976 K40 00:27:50 00:31:02
96 1582 STASZAK SYLWIA Dąbrówka FEHLAU RUN TEAM 1990 K30 00:27:55 00:28:18
97 1629 GMEREK EWELINA Poznań 1977 K40 00:28:01 00:31:10
98 1458 OBADA MAŁGORZATA Poznań BIEGAJĄCA ZA WILKIEM (1694) 1982 K30 00:28:07 00:31:25
99 68 WIŚNIEWSKA MARTA Poznań 1984 K30 00:28:08 00:29:52
100 280 GAWĘCKA ANNA Poznań BUKOWSKI KLUB BIEGACZA 1985 K30 00:28:18 00:31:26
101 349 GÓRNIAK LIDIA Luboń ŚWIERCZEWO RUN 1984 K30 00:28:26 00:31:57
102 1090 OTTO AGATA Kościan 1994 K20 00:28:29 00:31:46
103 1287 STASZYŃSKA KAROLINA Tulce BIEGAJĄCE KREJZOLE 1977 K40 00:28:34 00:31:55
104 1342 SIUDAK ANNA Tulce 1980 K40 00:28:37 00:31:58
105 161 BEKAS PAULINA Poznań NIGHT RUNNERS 1983 K30 00:28:40 00:33:17
106 119 WARZYCHA MARTYNA Poznań KPI TEMPO 1990 K30 00:28:45 00:33:26
107 10 KOTKOWSKA KAROLINA POZNAŃ DRUŻYNA SZPIKU 1975 K40 00:28:46 00:31:58
108 446 KLAUZA MAGDALENA Poznań WOLNE ŚLIMAKI 1972 K40 00:28:47 00:30:24
109 347 MINKISIEWICZ AGNIESZKA Poznań NIGHT RUNNERS 1988 K30 00:28:57 00:30:36
110 1017 KUPCZAK MONIKA Buk PIEKIELNIE ZGRANI 1995 K20 00:29:01 00:30:35
111 1055 GMEREK MONIKA Mosina 1993 K20 00:29:05 00:32:34
112 129 WESOŁEK MAGDA Poznań 1985 K30 00:29:12 00:32:38
113 281 DEMBIŃSKA DARIA Rokietnica WÓJTOWICZ TRI TEAM 1974 K40 00:29:28 00:32:39
114 1391 JANKOWSKA MAŁGORZATA Poznań 1982 K30 00:29:29 00:32:44
115 1121 RATAJCZAK MAGDALENA Poznań 1978 K40 00:29:35 00:34:10
116 1004 ADAMCZYK PATRYCJA Poznań FLEXLINK RUNNING TEAM 1976 K40 00:29:37 00:31:17
117 1645 LIS MARTA Turek 1991 K30 00:29:39 00:34:29
118 1188 PRZYBYLSKA KATARZYNA Plewiska 1994 K20 00:29:41 00:31:25
119 175 OLECHOWSKA MONIKA Poznań NIGHT RUNNERS 1982 K30 00:29:47 00:31:32
120 1505 MYTNIK MARTA Poznań 1982 K30 00:29:51 00:32:57
121 1127 KACZMAREK OLGA Poznań 1977 K40 00:29:56 00:31:44
122 124 DOLATA KATARZYNA Poznań TZS - TRADYCYJNIE ZAMYKAJĄCY STAWKĘ 1979 K40 00:30:07 00:31:51
123 1600 RĘKAS HANNA Poznań 1985 K30 00:30:11 00:34:49
124 470 WACHOWIAK ANNA Poznań CARLSBERG SHARED SERVICES 1985 K30 00:30:15 00:30:31
125 341 KOSICKA ANNA Poznań BIEGAJĄCE CHOMIKI 1976 K40 00:30:17 00:34:59
126 278 KAPELA BASIA Poznań MOLDY UNICORNS 1988 K30 00:30:22 00:33:47
127 104 KUKLA-KOWALSKA ALICJA LUSÓWKO TARNOWO PODGÓRNE BIEGA 1978 K40 00:30:25 00:33:39
128 147 MUSIALSKA ANNA Poznań PNB 1980 K40 00:30:25 00:32:03
129 1180 KARCZMARSKA JOANNA Poznań 1992 K20 00:30:34 00:33:41
130 1194 MATYSIAK MARTA Poznań 1989 K30 00:30:36 00:35:15
131 177 STRYKOWSKA ANNA Poznań SPEED SZURACZ 1979 K40 00:30:38 00:35:15
132 1001 DZIĘCIELSKA AGNIESZKA Poznań 1976 K40 00:30:42 00:34:17
133 477 MASZTALLER ANETA Poznań 1985 K30 00:30:48 00:35:29
134 513 GIZIŃSKA KATARZYNA Plewiska DFDS POLSKA RUNNING TEAM 1983 K30 00:30:55 00:34:01
135 457 KOZIEŁ EWELINA Poznań DFDS POLSKA RUNNING TEAM 1982 K30 00:30:56 00:34:01
136 1299 ŻMUDA-TRZEBIATOWSKA IWONA Poznań 1973 K40 00:31:05 00:33:00
137 82 HERWART MARIA Poznań 1964 K50 00:31:13 00:35:47
138 1388 STOŁOWSKA SABINA Poznań ŚWIERCZEWO RUN 1982 K30 00:31:15 00:34:43
139 35 MATUSEWICZ ALEKSANDRA Dopiewiec 1982 K30 00:31:26 00:35:59
140 46 ŻOŁĄDKOWSKA KALINA Środa Wlkp. 6 ŁAP 1981 K40 00:31:26 00:34:41
141 47 PRZYBYLSKA ANNA Środa Wielkopolska 6 ŁAP 1985 K30 00:31:26 00:34:43
142 312 SABINIEWICZ MARIA Zalasewo 1VERTIGO 1973 K40 00:31:29 00:34:37
143 1019 WRÓBLEWSKA KAROLINA Poznań 1994 K20 00:31:32 00:34:44
144 460 GOLDMAN DOMINIKA Poznań BIEGAJĄCE CHOMIKI 1974 K40 00:31:56 00:36:40
145 415 MĄDRZAK KAROLINA POZNAŃ POWIAT POZNAŃSKI 1979 K40 00:31:57 00:35:07
146 1087 PĄPKA ALDONA Wojnowice 1972 K40 00:32:12 00:32:12
147 261 KOŁT MARTA Poznań SDS KAROLINA MOŚKO 1980 K40 00:32:15 00:33:56
148 443 DOBROŃ KATARZYNA Poznań 1988 K30 00:32:19 00:34:11
149 521 ŻABKO ALEKSANDRA Poznań CARLSBERG SHARED SERVICES 1992 K20 00:32:40 00:36:08
150 452 MROZ IZABELA Poznań WOLNE ŚLIMAKI 1982 K30 00:32:46 00:34:24
151 224 PIETRZAK ANNA Poznań NIGHT RUNNERS POZNAŃ 1974 K40 00:32:49 00:36:14
152 445 BUDZYŃSKA PAULINA Włocławek MOLDY UNICORNS 1994 K20 00:32:50 00:36:17
153 1036 KORZENIOWSKA GOSIA Poznań NIGHT RUNNERS 1983 K30 00:32:55 00:37:31
154 1038 GRACZYK GRAŻYNA Poznań NIGHT RUNNERS POZNAŃ 1981 K40 00:32:56 00:37:31
155 419 BAREŁKOWSKA KATARZYNA Poznań NIGHT RUNNERS 1972 K40 00:33:02 00:36:14
156 1588 LEMBICZ EWA Luboń 1972 K40 00:33:06 00:36:21
157 88 SZACHT IZABELA Poznań 1982 K30 00:33:09 00:36:28
158 58 MERKLINGHAUS-KOBER MONIKA Kościan SPEED FEET 16 / PARKRUN KOŚCIAN 1975 K40 00:33:10 00:36:43
159 528 STACHOWIAK EWA Rokietnica ROKIETNICA BIEGA/OWOCBIEGA TEAM 2005 K16 00:33:12 00:37:52
160 264 KUSZYK MARZENA Poznań 1981 K40 00:33:33 00:38:19
161 1108 NOWAK PAULINA Poznań EPIC TEAM 1988 K30 00:33:39 00:35:31
162 1107 WOLNIEWICZ JUSTYNA Rokietnica 1988 K30 00:33:39 00:35:31
163 1438 MATUSZEWSKA MARTA PLEWISKA 1978 K40 00:33:39 00:37:22
164 92 PIOTROWSKA JOANNA Poznań SZYBKIE MAŚLAKI 1991 K30 00:33:40 00:37:11
165 1586 LISEWSKA KATARZYNA Poznań 1969 K50 00:33:43 00:38:19
166 400 WALENTOWSKA PAULINA Poznań 1978 K40 00:33:49 00:36:59
167 1119 GELC VIOLETTA Poznań LOCO TEAM 1964 K50 00:33:59 00:38:39
168 1660 JANOWICZ ROMUALDA OPALENICA OKB OPALENICA 1965 K50 00:34:04 00:34:04
169 272 MIELNIK NATALIA Poznań 1987 K30 00:34:14 00:38:48
170 1626 JOHN MILENA Poznań 1982 K30 00:34:23 00:38:58
171 328 SŁAWEK JOLANTA Suchy Las PIĄTKOWO NA BIEGOWO 1976 K40 00:34:30 00:36:10
172 391 PRZYBYŁEK JOANNA Kórnik PKO BANK POLSKI 1984 K30 00:34:57 00:39:40
173 1181 LEWANDOWSKA JOANNA Poznań 1983 K30 00:35:01 00:38:15
174 295 SKOWROŃSKA MAŁGORZATA Dąbrówka 1989 K30 00:35:04 00:39:40
175 411 WOJTECKA IWONA Rokietnica 1976 K40 00:35:14 00:35:14
176 387 MAJEWSKA MARIA Poznań 1988 K30 00:35:14 00:38:31
177 1665 LESIŃSKA BEATA Poznań NIGHT RUNNERS 1982 K30 00:35:16 00:37:06
178 506 WĘGOROWSKA NINA Poznań 1989 K30 00:35:22 00:40:00
179 1135 KNACH-MANOWSKA KAROLINA Poznań LOCO TEAM 1971 K50 00:35:28 00:40:08
180 123 KACZMAREK AGATA Poznań KPI TEMPO 1994 K20 00:35:38 00:40:18
181 233 NOWACKA JUSTYNA Poznań ROCHE RUNNERS 1983 K30 00:36:40 00:39:57
182 367 KLAUZIŃSKA ALICJA Poznań CARLSBERG SHARED SERVICES 1996 K20 00:36:59 00:40:27
183 165 MIKOŁAJCZAK MAGDALENA Środa Wlkp 1982 K30 00:37:01 00:41:48
184 386 SZYMAŃSKA AGNIESZKA Poznań MUAY RUNNING TEAM 1978 K40 00:37:51 00:40:57
185 197 FALKOWSKA ILONA poznan 1954 K60 00:37:55 00:42:35
186 156 WOJNAROWSKA ANNA Poznań 1989 K30 00:38:39 00:43:17
187 500 SZIWA DANUTA Kiekrz gmina Rokietnica 1957 K60 00:38:50 00:43:20
188 1052 JAŹDZIKOWSKA AGNIESZKA Koziegłowy CZERWONACKIE KIJANKI 1979 K40 00:38:53 00:43:36
189 294 SKOWROŃSKA KATARZYNA Dopiewiec 1961 K60 00:39:49 00:44:30
190 449 KARCHERLA SRI VIDYANI Poznan 1994 K20 00:39:57 00:43:05
191 1637 FERREIRA DA SILVA DIANNE Poznan 1990 K30 00:40:59 00:45:38
192 567 TRYMERSKA ALEKSANDRA Poznań CARLSBERG SHARED SERVICES 1993 K20 00:43:15 00:43:19
193 469 SITEK AGNIESZKA Poznań 1981 K40 00:46:59 00:51:49
194 1661 MAZUREK JOANNA Poznań KOBIETY BIEGAJĄ 1988 K30 00:49:38 00:54:42
195 1059 PAWLAK KATARZYNA Luboń MAMY-BIEGAMY 1980 K40 00:49:57 00:54:42
196 345 HOFFMANN JOANNA Luboń MAMY-BIEGAMY 1986 K30 00:49:58 00:54:42
197 465 WOJCIECHOWSKA MAGDALENA Baranowo 1976 K40 00:51:53 00:56:42
198 466 LEBIODA EDYTA Przeźmierowo 1982 K30 00:51:54 00:56:42
199 526 SZKUDLAREK MONIKA Poznań 1979 K40 00:53:09 00:57:59
200 468 BOGUSZ AGATA Poznań 1979 K40 00:53:14 00:58:04

Sponsor tytularny

Partnerzy generalni